Flugplatz Uetersen/Heist

METAR EDHI TAF EDHI
0 °C
°C
-
°C
17m
Età
05:36:34
LT
04:36
UTC
0 ft

4.000

8.000

12.000

16.000

20.000

BKN 3.000
OVC 19.000
VFR
<?= Yii::t('app', 'Wind direction') ?> <?= Yii::t('app', 'of'); ?>
210°
08:12
Alba
75%
Umidità
Taglio del vento
Chiuso/Neve
Raggio visivo RWY
Condizione della RWY
Visibilità verticale
Visibilità minima
CAVOK
Tendenza
Correzione
Rapporto speciale
1029 hPa
QNH
METAR EDHI 280420Z AUTO 21003KT 9999 // BKN030/// OVC190/// M00/M04 Q1029
Copertura totale
3 kt
3 kt
10 km+
Vista
3.000 ft
Base nuvolosa
3 kt
Vento
metar-taf.com/EDHE

Metar-Taf.com

Decodificatore visivo

Noi e le terze parti seguiamo il tuo comportamento su internet con i cookie. Se continui, riteniamo che tu sia d'accordo con la nostra Politica sui cookie.